sensor_id;sensor_type;location;lat;lon;timestamp;temperature;humidity
20722;DHT22;10522;52.198;9.890;2024-01-27T00:00:42;4.80;99.90
20722;DHT22;10522;52.198;9.890;2024-01-27T00:03:08;4.80;99.90
20722;DHT22;10522;52.198;9.890;2024-01-27T00:05:33;4.80;99.90
20722;DHT22;10522;52.198;9.890;2024-01-27T00:07:59;4.80;99.90
20722;DHT22;10522;52.198;9.890;2024-01-27T00:10:25;4.70;99.90
20722;DHT22;10522;52.198;9.890;2024-01-27T00:12:50;4.80;99.90
20722;DHT22;10522;52.198;9.890;2024-01-27T00:15:16;4.90;99.90
20722;DHT22;10522;52.198;9.890;2024-01-27T00:17:41;4.90;99.90
20722;DHT22;10522;52.198;9.890;2024-01-27T00:20:07;4.90;99.90
20722;DHT22;10522;52.198;9.890;2024-01-27T00:22:33;5.00;99.90
20722;DHT22;10522;52.198;9.890;2024-01-27T00:24:59;4.80;99.90
20722;DHT22;10522;52.198;9.890;2024-01-27T00:27:24;4.90;99.90
20722;DHT22;10522;52.198;9.890;2024-01-27T00:29:50;4.90;99.90
20722;DHT22;10522;52.198;9.890;2024-01-27T00:32:15;4.90;99.90
20722;DHT22;10522;52.198;9.890;2024-01-27T00:34:41;5.00;99.90
20722;DHT22;10522;52.198;9.890;2024-01-27T00:37:06;4.90;99.90
20722;DHT22;10522;52.198;9.890;2024-01-27T00:39:32;4.90;99.90
20722;DHT22;10522;52.198;9.890;2024-01-27T00:41:58;4.80;99.90
20722;DHT22;10522;52.198;9.890;2024-01-27T00:44:24;4.80;99.90
20722;DHT22;10522;52.198;9.890;2024-01-27T00:46:50;4.70;99.90
20722;DHT22;10522;52.198;9.890;2024-01-27T00:49:16;4.70;99.90
20722;DHT22;10522;52.198;9.890;2024-01-27T00:51:41;4.60;99.90
20722;DHT22;10522;52.198;9.890;2024-01-27T00:54:07;4.70;99.90
20722;DHT22;10522;52.198;9.890;2024-01-27T00:56:33;4.80;99.90
20722;DHT22;10522;52.198;9.890;2024-01-27T00:58:58;4.90;99.90
20722;DHT22;10522;52.198;9.890;2024-01-27T01:01:24;4.90;99.90
20722;DHT22;10522;52.198;9.890;2024-01-27T01:03:49;4.90;99.90
20722;DHT22;10522;52.198;9.890;2024-01-27T01:06:15;4.90;99.90
20722;DHT22;10522;52.198;9.890;2024-01-27T01:08:41;4.90;99.90
20722;DHT22;10522;52.198;9.890;2024-01-27T01:11:06;5.00;99.90
20722;DHT22;10522;52.198;9.890;2024-01-27T01:13:32;4.90;99.90
20722;DHT22;10522;52.198;9.890;2024-01-27T01:15:57;5.00;99.90
20722;DHT22;10522;52.198;9.890;2024-01-27T01:18:23;5.00;99.90
20722;DHT22;10522;52.198;9.890;2024-01-27T01:20:48;5.00;99.90
20722;DHT22;10522;52.198;9.890;2024-01-27T01:23:14;4.90;99.90
20722;DHT22;10522;52.198;9.890;2024-01-27T01:25:40;4.90;99.90
20722;DHT22;10522;52.198;9.890;2024-01-27T01:28:05;4.90;99.90
20722;DHT22;10522;52.198;9.890;2024-01-27T01:30:31;4.70;99.90
20722;DHT22;10522;52.198;9.890;2024-01-27T01:32:56;4.60;99.90
20722;DHT22;10522;52.198;9.890;2024-01-27T01:35:22;4.50;99.90
20722;DHT22;10522;52.198;9.890;2024-01-27T01:37:48;4.40;99.90
20722;DHT22;10522;52.198;9.890;2024-01-27T01:40:14;4.40;99.90
20722;DHT22;10522;52.198;9.890;2024-01-27T01:42:41;4.60;99.90
20722;DHT22;10522;52.198;9.890;2024-01-27T01:45:07;4.40;99.90
20722;DHT22;10522;52.198;9.890;2024-01-27T01:47:34;4.30;99.90
20722;DHT22;10522;52.198;9.890;2024-01-27T01:49:59;4.30;99.90
20722;DHT22;10522;52.198;9.890;2024-01-27T01:52:25;4.50;99.90
20722;DHT22;10522;52.198;9.890;2024-01-27T01:54:51;4.50;99.90
20722;DHT22;10522;52.198;9.890;2024-01-27T01:57:17;4.40;99.90
20722;DHT22;10522;52.198;9.890;2024-01-27T01:59:43;4.40;99.90
20722;DHT22;10522;52.198;9.890;2024-01-27T02:02:09;4.40;99.90
20722;DHT22;10522;52.198;9.890;2024-01-27T02:04:44;4.30;99.90
20722;DHT22;10522;52.198;9.890;2024-01-27T02:07:11;4.20;99.90
20722;DHT22;10522;52.198;9.890;2024-01-27T02:09:37;4.30;99.90
20722;DHT22;10522;52.198;9.890;2024-01-27T02:12:03;4.30;99.90
20722;DHT22;10522;52.198;9.890;2024-01-27T02:14:29;4.20;99.90
20722;DHT22;10522;52.198;9.890;2024-01-27T02:16:56;4.10;99.90
20722;DHT22;10522;52.198;9.890;2024-01-27T02:19:21;4.00;99.90
20722;DHT22;10522;52.198;9.890;2024-01-27T02:21:47;4.00;99.90
20722;DHT22;10522;52.198;9.890;2024-01-27T02:24:12;3.90;99.90
20722;DHT22;10522;52.198;9.890;2024-01-27T02:26:38;3.80;99.90
20722;DHT22;10522;52.198;9.890;2024-01-27T02:29:04;3.80;99.90
20722;DHT22;10522;52.198;9.890;2024-01-27T02:31:30;3.70;99.90
20722;DHT22;10522;52.198;9.890;2024-01-27T02:33:55;3.70;99.90
20722;DHT22;10522;52.198;9.890;2024-01-27T02:36:21;3.70;99.90
20722;DHT22;10522;52.198;9.890;2024-01-27T02:38:46;3.70;99.90
20722;DHT22;10522;52.198;9.890;2024-01-27T02:41:12;3.60;99.90
20722;DHT22;10522;52.198;9.890;2024-01-27T02:43:38;3.60;99.90
20722;DHT22;10522;52.198;9.890;2024-01-27T02:46:11;3.60;99.90
20722;DHT22;10522;52.198;9.890;2024-01-27T02:48:40;3.50;99.90
20722;DHT22;10522;52.198;9.890;2024-01-27T02:51:05;3.50;99.90
20722;DHT22;10522;52.198;9.890;2024-01-27T02:53:31;3.40;99.90
20722;DHT22;10522;52.198;9.890;2024-01-27T02:55:56;3.40;99.90
20722;DHT22;10522;52.198;9.890;2024-01-27T02:58:22;3.30;99.90
20722;DHT22;10522;52.198;9.890;2024-01-27T03:00:48;3.40;99.90
20722;DHT22;10522;52.198;9.890;2024-01-27T03:03:13;3.40;99.90
20722;DHT22;10522;52.198;9.890;2024-01-27T03:05:40;3.30;99.90
20722;DHT22;10522;52.198;9.890;2024-01-27T03:08:06;3.30;99.90
20722;DHT22;10522;52.198;9.890;2024-01-27T03:10:32;3.30;99.90
20722;DHT22;10522;52.198;9.890;2024-01-27T03:12:57;3.30;99.90
20722;DHT22;10522;52.198;9.890;2024-01-27T03:15:23;3.30;99.90
20722;DHT22;10522;52.198;9.890;2024-01-27T03:17:49;3.20;99.90
20722;DHT22;10522;52.198;9.890;2024-01-27T03:20:14;3.20;99.90
20722;DHT22;10522;52.198;9.890;2024-01-27T03:22:40;3.20;99.90
20722;DHT22;10522;52.198;9.890;2024-01-27T03:25:07;3.30;99.90
20722;DHT22;10522;52.198;9.890;2024-01-27T03:27:33;3.20;99.90
20722;DHT22;10522;52.198;9.890;2024-01-27T03:30:00;3.20;99.90
20722;DHT22;10522;52.198;9.890;2024-01-27T03:32:32;3.20;99.90
20722;DHT22;10522;52.198;9.890;2024-01-27T03:34:59;3.10;99.90
20722;DHT22;10522;52.198;9.890;2024-01-27T03:37:25;3.10;99.90
20722;DHT22;10522;52.198;9.890;2024-01-27T03:39:51;3.10;99.90
20722;DHT22;10522;52.198;9.890;2024-01-27T03:42:16;3.10;99.90
20722;DHT22;10522;52.198;9.890;2024-01-27T03:44:42;3.00;99.90
20722;DHT22;10522;52.198;9.890;2024-01-27T03:47:07;3.00;99.90
20722;DHT22;10522;52.198;9.890;2024-01-27T03:49:33;3.00;99.90
20722;DHT22;10522;52.198;9.890;2024-01-27T03:51:59;3.00;99.90
20722;DHT22;10522;52.198;9.890;2024-01-27T03:54:24;3.00;99.90
20722;DHT22;10522;52.198;9.890;2024-01-27T03:56:50;3.00;99.90
20722;DHT22;10522;52.198;9.890;2024-01-27T03:59:15;3.00;99.90
20722;DHT22;10522;52.198;9.890;2024-01-27T04:01:41;3.00;99.90
20722;DHT22;10522;52.198;9.890;2024-01-27T04:04:07;3.00;99.90
20722;DHT22;10522;52.198;9.890;2024-01-27T04:06:40;3.00;99.90
20722;DHT22;10522;52.198;9.890;2024-01-27T04:09:05;3.00;99.90
20722;DHT22;10522;52.198;9.890;2024-01-27T04:11:35;3.00;99.90
20722;DHT22;10522;52.198;9.890;2024-01-27T04:14:01;3.00;99.90
20722;DHT22;10522;52.198;9.890;2024-01-27T04:16:27;2.90;99.90
20722;DHT22;10522;52.198;9.890;2024-01-27T04:18:53;2.90;99.90
20722;DHT22;10522;52.198;9.890;2024-01-27T04:21:18;2.90;99.90
20722;DHT22;10522;52.198;9.890;2024-01-27T04:23:44;2.80;99.90
20722;DHT22;10522;52.198;9.890;2024-01-27T04:26:10;2.80;99.90
20722;DHT22;10522;52.198;9.890;2024-01-27T04:28:36;2.70;99.90
20722;DHT22;10522;52.198;9.890;2024-01-27T04:31:02;2.70;99.90
20722;DHT22;10522;52.198;9.890;2024-01-27T04:33:28;2.70;99.90
20722;DHT22;10522;52.198;9.890;2024-01-27T04:35:53;2.70;99.90
20722;DHT22;10522;52.198;9.890;2024-01-27T04:38:19;2.70;99.90
20722;DHT22;10522;52.198;9.890;2024-01-27T04:40:44;2.70;99.90
20722;DHT22;10522;52.198;9.890;2024-01-27T04:43:17;2.70;99.90
20722;DHT22;10522;52.198;9.890;2024-01-27T04:45:43;2.60;99.90
20722;DHT22;10522;52.198;9.890;2024-01-27T04:48:10;2.60;99.90
20722;DHT22;10522;52.198;9.890;2024-01-27T04:50:35;2.60;99.90
20722;DHT22;10522;52.198;9.890;2024-01-27T04:53:01;2.60;99.90
20722;DHT22;10522;52.198;9.890;2024-01-27T04:55:27;2.60;99.90
20722;DHT22;10522;52.198;9.890;2024-01-27T04:57:52;2.60;99.90
20722;DHT22;10522;52.198;9.890;2024-01-27T05:00:19;2.70;99.90
20722;DHT22;10522;52.198;9.890;2024-01-27T05:02:45;2.60;99.90
20722;DHT22;10522;52.198;9.890;2024-01-27T05:05:11;2.60;99.90
20722;DHT22;10522;52.198;9.890;2024-01-27T05:07:37;2.70;99.90
20722;DHT22;10522;52.198;9.890;2024-01-27T05:10:03;2.70;99.90
20722;DHT22;10522;52.198;9.890;2024-01-27T05:12:29;2.60;99.90
20722;DHT22;10522;52.198;9.890;2024-01-27T05:14:55;2.60;99.90
20722;DHT22;10522;52.198;9.890;2024-01-27T05:17:20;2.60;99.90
20722;DHT22;10522;52.198;9.890;2024-01-27T05:19:46;2.60;99.90
20722;DHT22;10522;52.198;9.890;2024-01-27T05:22:12;2.70;99.90
20722;DHT22;10522;52.198;9.890;2024-01-27T05:24:37;2.60;99.90
20722;DHT22;10522;52.198;9.890;2024-01-27T05:27:03;2.60;99.90
20722;DHT22;10522;52.198;9.890;2024-01-27T05:29:29;2.60;99.90
20722;DHT22;10522;52.198;9.890;2024-01-27T05:31:55;2.60;99.90
20722;DHT22;10522;52.198;9.890;2024-01-27T05:34:20;2.50;99.90
20722;DHT22;10522;52.198;9.890;2024-01-27T05:36:47;2.60;99.90
20722;DHT22;10522;52.198;9.890;2024-01-27T05:39:13;2.60;99.90
20722;DHT22;10522;52.198;9.890;2024-01-27T05:41:39;2.60;99.90
20722;DHT22;10522;52.198;9.890;2024-01-27T05:44:05;2.60;99.90
20722;DHT22;10522;52.198;9.890;2024-01-27T05:46:30;2.50;99.90
20722;DHT22;10522;52.198;9.890;2024-01-27T05:48:56;2.50;99.90
20722;DHT22;10522;52.198;9.890;2024-01-27T05:51:26;2.60;99.90
20722;DHT22;10522;52.198;9.890;2024-01-27T05:53:52;2.60;99.90
20722;DHT22;10522;52.198;9.890;2024-01-27T05:56:18;2.50;99.90
20722;DHT22;10522;52.198;9.890;2024-01-27T05:58:47;2.60;99.90
20722;DHT22;10522;52.198;9.890;2024-01-27T06:01:13;2.60;99.90
20722;DHT22;10522;52.198;9.890;2024-01-27T06:03:41;2.50;99.90
20722;DHT22;10522;52.198;9.890;2024-01-27T06:06:07;2.50;99.90
20722;DHT22;10522;52.198;9.890;2024-01-27T06:08:33;2.40;99.90
20722;DHT22;10522;52.198;9.890;2024-01-27T06:10:59;2.50;99.90
20722;DHT22;10522;52.198;9.890;2024-01-27T06:13:24;2.50;99.90
20722;DHT22;10522;52.198;9.890;2024-01-27T06:15:50;2.50;99.90
20722;DHT22;10522;52.198;9.890;2024-01-27T06:18:16;2.40;99.90
20722;DHT22;10522;52.198;9.890;2024-01-27T06:20:41;2.50;99.90
20722;DHT22;10522;52.198;9.890;2024-01-27T06:23:08;2.60;99.90
20722;DHT22;10522;52.198;9.890;2024-01-27T06:25:34;2.50;99.90
20722;DHT22;10522;52.198;9.890;2024-01-27T06:28:00;2.60;99.90
20722;DHT22;10522;52.198;9.890;2024-01-27T06:30:25;2.70;99.90
20722;DHT22;10522;52.198;9.890;2024-01-27T06:32:51;2.90;99.90
20722;DHT22;10522;52.198;9.890;2024-01-27T06:35:16;2.70;99.90
20722;DHT22;10522;52.198;9.890;2024-01-27T06:37:42;2.60;99.90
20722;DHT22;10522;52.198;9.890;2024-01-27T06:40:08;2.60;99.90
20722;DHT22;10522;52.198;9.890;2024-01-27T06:42:37;2.60;99.90
20722;DHT22;10522;52.198;9.890;2024-01-27T06:45:03;2.60;99.90
20722;DHT22;10522;52.198;9.890;2024-01-27T06:47:29;2.70;99.90
20722;DHT22;10522;52.198;9.890;2024-01-27T06:49:55;2.60;99.90
20722;DHT22;10522;52.198;9.890;2024-01-27T06:52:20;2.60;99.90
20722;DHT22;10522;52.198;9.890;2024-01-27T06:54:46;2.50;99.90
20722;DHT22;10522;52.198;9.890;2024-01-27T06:57:22;2.50;99.90
20722;DHT22;10522;52.198;9.890;2024-01-27T06:59:51;2.50;99.90
20722;DHT22;10522;52.198;9.890;2024-01-27T07:02:22;2.40;99.90
20722;DHT22;10522;52.198;9.890;2024-01-27T07:04:47;2.30;99.90
20722;DHT22;10522;52.198;9.890;2024-01-27T07:07:13;2.40;99.90
20722;DHT22;10522;52.198;9.890;2024-01-27T07:09:39;2.40;99.90
20722;DHT22;10522;52.198;9.890;2024-01-27T07:12:05;2.40;99.90
20722;DHT22;10522;52.198;9.890;2024-01-27T07:14:30;2.40;99.90
20722;DHT22;10522;52.198;9.890;2024-01-27T07:16:56;2.40;99.90
20722;DHT22;10522;52.198;9.890;2024-01-27T07:19:21;2.40;99.90
20722;DHT22;10522;52.198;9.890;2024-01-27T07:21:47;2.30;99.90
20722;DHT22;10522;52.198;9.890;2024-01-27T07:24:13;2.30;99.90
20722;DHT22;10522;52.198;9.890;2024-01-27T07:26:38;2.30;99.90
20722;DHT22;10522;52.198;9.890;2024-01-27T07:29:04;2.30;99.90
20722;DHT22;10522;52.198;9.890;2024-01-27T07:31:29;2.40;99.90
20722;DHT22;10522;52.198;9.890;2024-01-27T07:33:56;2.50;99.90
20722;DHT22;10522;52.198;9.890;2024-01-27T07:36:22;2.60;99.90
20722;DHT22;10522;52.198;9.890;2024-01-27T07:38:47;2.60;99.90
20722;DHT22;10522;52.198;9.890;2024-01-27T07:41:13;2.60;99.90
20722;DHT22;10522;52.198;9.890;2024-01-27T07:43:38;2.50;99.90
20722;DHT22;10522;52.198;9.890;2024-01-27T07:46:04;2.60;99.90
20722;DHT22;10522;52.198;9.890;2024-01-27T07:48:30;2.60;99.90
20722;DHT22;10522;52.198;9.890;2024-01-27T07:50:55;2.60;99.90
20722;DHT22;10522;52.198;9.890;2024-01-27T07:53:22;2.50;99.90
20722;DHT22;10522;52.198;9.890;2024-01-27T07:55:47;2.50;99.90
20722;DHT22;10522;52.198;9.890;2024-01-27T07:58:13;2.50;99.90
20722;DHT22;10522;52.198;9.890;2024-01-27T08:00:39;2.60;99.90
20722;DHT22;10522;52.198;9.890;2024-01-27T08:03:04;2.80;99.90
20722;DHT22;10522;52.198;9.890;2024-01-27T08:05:30;2.70;99.90
20722;DHT22;10522;52.198;9.890;2024-01-27T08:07:56;2.70;99.90
20722;DHT22;10522;52.198;9.890;2024-01-27T08:10:22;2.70;99.90
20722;DHT22;10522;52.198;9.890;2024-01-27T08:12:48;2.70;99.90
20722;DHT22;10522;52.198;9.890;2024-01-27T08:15:13;2.70;99.90
20722;DHT22;10522;52.198;9.890;2024-01-27T08:17:39;2.70;99.90
20722;DHT22;10522;52.198;9.890;2024-01-27T08:20:05;2.70;99.90
20722;DHT22;10522;52.198;9.890;2024-01-27T08:22:31;2.70;99.90
20722;DHT22;10522;52.198;9.890;2024-01-27T08:24:56;2.80;99.90
20722;DHT22;10522;52.198;9.890;2024-01-27T08:27:22;2.90;99.90
20722;DHT22;10522;52.198;9.890;2024-01-27T08:29:47;2.90;99.90
20722;DHT22;10522;52.198;9.890;2024-01-27T08:32:13;3.00;99.90
20722;DHT22;10522;52.198;9.890;2024-01-27T08:34:39;3.00;99.90
20722;DHT22;10522;52.198;9.890;2024-01-27T08:37:18;3.10;99.90
20722;DHT22;10522;52.198;9.890;2024-01-27T08:39:44;3.20;99.90
20722;DHT22;10522;52.198;9.890;2024-01-27T08:42:10;3.20;99.90
20722;DHT22;10522;52.198;9.890;2024-01-27T08:44:36;3.20;99.90
20722;DHT22;10522;52.198;9.890;2024-01-27T08:47:02;3.30;99.90
20722;DHT22;10522;52.198;9.890;2024-01-27T08:49:27;3.30;99.90
20722;DHT22;10522;52.198;9.890;2024-01-27T08:51:53;3.30;99.90
20722;DHT22;10522;52.198;9.890;2024-01-27T08:54:20;3.40;99.90
20722;DHT22;10522;52.198;9.890;2024-01-27T08:56:46;3.40;99.90
20722;DHT22;10522;52.198;9.890;2024-01-27T08:59:11;3.40;99.90
20722;DHT22;10522;52.198;9.890;2024-01-27T09:01:37;3.50;99.90
20722;DHT22;10522;52.198;9.890;2024-01-27T09:04:02;3.50;99.90
20722;DHT22;10522;52.198;9.890;2024-01-27T09:06:28;3.60;99.90
20722;DHT22;10522;52.198;9.890;2024-01-27T09:08:53;3.60;99.90
20722;DHT22;10522;52.198;9.890;2024-01-27T09:11:19;3.60;99.90
20722;DHT22;10522;52.198;9.890;2024-01-27T09:13:45;3.60;99.90
20722;DHT22;10522;52.198;9.890;2024-01-27T09:16:11;3.70;99.90
20722;DHT22;10522;52.198;9.890;2024-01-27T09:18:39;3.70;99.90
20722;DHT22;10522;52.198;9.890;2024-01-27T09:21:04;3.80;99.90
20722;DHT22;10522;52.198;9.890;2024-01-27T09:23:30;3.80;99.90
20722;DHT22;10522;52.198;9.890;2024-01-27T09:25:55;3.90;99.90
20722;DHT22;10522;52.198;9.890;2024-01-27T09:28:21;3.90;99.90
20722;DHT22;10522;52.198;9.890;2024-01-27T09:30:47;4.00;99.90
20722;DHT22;10522;52.198;9.890;2024-01-27T09:33:12;4.00;99.90
20722;DHT22;10522;52.198;9.890;2024-01-27T09:35:38;4.10;99.90
20722;DHT22;10522;52.198;9.890;2024-01-27T09:38:04;4.10;99.90
20722;DHT22;10522;52.198;9.890;2024-01-27T09:40:31;4.20;99.90
20722;DHT22;10522;52.198;9.890;2024-01-27T09:42:59;4.20;99.90
20722;DHT22;10522;52.198;9.890;2024-01-27T09:45:24;4.30;99.90
20722;DHT22;10522;52.198;9.890;2024-01-27T09:47:51;4.30;99.90
20722;DHT22;10522;52.198;9.890;2024-01-27T09:50:18;4.40;99.90
20722;DHT22;10522;52.198;9.890;2024-01-27T09:52:44;4.40;99.90
20722;DHT22;10522;52.198;9.890;2024-01-27T09:55:09;4.40;99.90
20722;DHT22;10522;52.198;9.890;2024-01-27T09:57:38;4.50;99.90
20722;DHT22;10522;52.198;9.890;2024-01-27T10:00:06;4.60;99.90
20722;DHT22;10522;52.198;9.890;2024-01-27T10:02:34;4.60;99.90
20722;DHT22;10522;52.198;9.890;2024-01-27T10:05:01;4.60;99.90
20722;DHT22;10522;52.198;9.890;2024-01-27T10:07:27;4.70;99.90
20722;DHT22;10522;52.198;9.890;2024-01-27T10:09:53;4.70;99.90
20722;DHT22;10522;52.198;9.890;2024-01-27T10:12:20;4.80;99.90
20722;DHT22;10522;52.198;9.890;2024-01-27T10:14:46;4.80;99.90
20722;DHT22;10522;52.198;9.890;2024-01-27T10:17:21;4.90;99.90
20722;DHT22;10522;52.198;9.890;2024-01-27T10:20:05;4.80;99.90
20722;DHT22;10522;52.198;9.890;2024-01-27T10:22:43;4.90;99.90
20722;DHT22;10522;52.198;9.890;2024-01-27T10:25:10;4.90;99.90
20722;DHT22;10522;52.198;9.890;2024-01-27T10:27:36;5.00;99.90
20722;DHT22;10522;52.198;9.890;2024-01-27T10:30:02;5.10;99.90
20722;DHT22;10522;52.198;9.890;2024-01-27T10:32:28;5.10;99.90
20722;DHT22;10522;52.198;9.890;2024-01-27T10:35:04;5.20;99.90
20722;DHT22;10522;52.198;9.890;2024-01-27T10:37:30;5.20;99.90
20722;DHT22;10522;52.198;9.890;2024-01-27T10:40:04;5.20;99.90
20722;DHT22;10522;52.198;9.890;2024-01-27T10:42:30;5.20;99.90
20722;DHT22;10522;52.198;9.890;2024-01-27T10:45:00;5.30;99.90
20722;DHT22;10522;52.198;9.890;2024-01-27T10:47:30;5.30;99.90
20722;DHT22;10522;52.198;9.890;2024-01-27T10:49:57;5.50;99.90
20722;DHT22;10522;52.198;9.890;2024-01-27T10:52:32;5.50;99.90
20722;DHT22;10522;52.198;9.890;2024-01-27T10:54:59;5.50;99.90
20722;DHT22;10522;52.198;9.890;2024-01-27T10:57:26;5.60;99.90
20722;DHT22;10522;52.198;9.890;2024-01-27T10:59:53;5.60;99.90
20722;DHT22;10522;52.198;9.890;2024-01-27T11:02:19;5.60;99.90
20722;DHT22;10522;52.198;9.890;2024-01-27T11:04:48;5.60;99.90
20722;DHT22;10522;52.198;9.890;2024-01-27T11:07:15;5.60;99.90
20722;DHT22;10522;52.198;9.890;2024-01-27T11:09:42;5.70;99.90
20722;DHT22;10522;52.198;9.890;2024-01-27T11:12:09;5.80;99.90
20722;DHT22;10522;52.198;9.890;2024-01-27T11:14:35;5.80;99.90
20722;DHT22;10522;52.198;9.890;2024-01-27T11:17:01;5.90;99.90
20722;DHT22;10522;52.198;9.890;2024-01-27T11:19:27;5.90;99.90
20722;DHT22;10522;52.198;9.890;2024-01-27T11:22:03;6.00;99.90
20722;DHT22;10522;52.198;9.890;2024-01-27T11:24:29;6.00;99.90
20722;DHT22;10522;52.198;9.890;2024-01-27T11:27:05;6.10;99.90
20722;DHT22;10522;52.198;9.890;2024-01-27T11:29:32;6.10;99.90
20722;DHT22;10522;52.198;9.890;2024-01-27T11:32:01;6.20;99.90
20722;DHT22;10522;52.198;9.890;2024-01-27T11:34:46;6.30;99.90
20722;DHT22;10522;52.198;9.890;2024-01-27T11:37:15;6.40;99.90
20722;DHT22;10522;52.198;9.890;2024-01-27T11:39:40;6.40;99.90
20722;DHT22;10522;52.198;9.890;2024-01-27T11:42:08;6.50;99.90
20722;DHT22;10522;52.198;9.890;2024-01-27T11:44:37;6.60;99.90
20722;DHT22;10522;52.198;9.890;2024-01-27T11:47:04;6.70;99.90
20722;DHT22;10522;52.198;9.890;2024-01-27T11:49:30;6.70;99.90
20722;DHT22;10522;52.198;9.890;2024-01-27T11:51:55;6.70;99.90
20722;DHT22;10522;52.198;9.890;2024-01-27T11:54:21;6.80;99.90
20722;DHT22;10522;52.198;9.890;2024-01-27T11:56:47;6.90;99.90
20722;DHT22;10522;52.198;9.890;2024-01-27T11:59:14;7.00;99.90
20722;DHT22;10522;52.198;9.890;2024-01-27T12:01:40;7.00;99.90
20722;DHT22;10522;52.198;9.890;2024-01-27T12:04:06;7.10;99.90
20722;DHT22;10522;52.198;9.890;2024-01-27T12:06:31;7.10;99.90
20722;DHT22;10522;52.198;9.890;2024-01-27T12:08:57;7.10;99.90
20722;DHT22;10522;52.198;9.890;2024-01-27T12:11:26;7.20;99.90
20722;DHT22;10522;52.198;9.890;2024-01-27T12:13:53;7.10;99.90
20722;DHT22;10522;52.198;9.890;2024-01-27T12:16:19;7.10;99.90
20722;DHT22;10522;52.198;9.890;2024-01-27T12:18:45;7.10;99.90
20722;DHT22;10522;52.198;9.890;2024-01-27T12:21:11;7.10;99.90
20722;DHT22;10522;52.198;9.890;2024-01-27T12:23:53;7.20;99.90
20722;DHT22;10522;52.198;9.890;2024-01-27T12:26:30;7.20;99.90
20722;DHT22;10522;52.198;9.890;2024-01-27T12:28:56;7.30;99.90
20722;DHT22;10522;52.198;9.890;2024-01-27T12:31:23;7.30;99.90
20722;DHT22;10522;52.198;9.890;2024-01-27T12:33:54;7.30;99.90
20722;DHT22;10522;52.198;9.890;2024-01-27T12:36:21;7.20;99.90
20722;DHT22;10522;52.198;9.890;2024-01-27T12:39:01;7.20;99.90
20722;DHT22;10522;52.198;9.890;2024-01-27T12:41:27;7.20;99.90
20722;DHT22;10522;52.198;9.890;2024-01-27T12:43:54;7.20;99.90
20722;DHT22;10522;52.198;9.890;2024-01-27T12:46:20;7.30;99.90
20722;DHT22;10522;52.198;9.890;2024-01-27T12:48:46;7.20;99.90
20722;DHT22;10522;52.198;9.890;2024-01-27T12:51:12;7.20;99.90
20722;DHT22;10522;52.198;9.890;2024-01-27T12:53:39;7.20;99.90
20722;DHT22;10522;52.198;9.890;2024-01-27T12:56:08;7.20;99.90
20722;DHT22;10522;52.198;9.890;2024-01-27T12:58:34;7.20;99.90
20722;DHT22;10522;52.198;9.890;2024-01-27T13:01:00;7.20;99.90
20722;DHT22;10522;52.198;9.890;2024-01-27T13:03:25;7.20;99.90
20722;DHT22;10522;52.198;9.890;2024-01-27T13:05:51;7.20;99.90
20722;DHT22;10522;52.198;9.890;2024-01-27T13:08:17;7.20;99.90
20722;DHT22;10522;52.198;9.890;2024-01-27T13:10:42;7.20;99.90
20722;DHT22;10522;52.198;9.890;2024-01-27T13:13:08;7.20;99.90
20722;DHT22;10522;52.198;9.890;2024-01-27T13:15:34;7.20;99.90
20722;DHT22;10522;52.198;9.890;2024-01-27T13:17:59;7.20;99.90
20722;DHT22;10522;52.198;9.890;2024-01-27T13:20:25;7.20;99.90
20722;DHT22;10522;52.198;9.890;2024-01-27T13:22:50;7.30;99.90
20722;DHT22;10522;52.198;9.890;2024-01-27T13:25:18;7.30;99.90
20722;DHT22;10522;52.198;9.890;2024-01-27T13:27:43;7.30;99.90
20722;DHT22;10522;52.198;9.890;2024-01-27T13:30:09;7.40;99.90
20722;DHT22;10522;52.198;9.890;2024-01-27T13:32:35;7.40;99.90
20722;DHT22;10522;52.198;9.890;2024-01-27T13:35:01;7.40;99.90
20722;DHT22;10522;52.198;9.890;2024-01-27T13:37:26;7.40;99.90
20722;DHT22;10522;52.198;9.890;2024-01-27T13:39:53;7.50;99.90
20722;DHT22;10522;52.198;9.890;2024-01-27T13:42:18;7.50;99.90
20722;DHT22;10522;52.198;9.890;2024-01-27T13:44:44;7.50;99.90
20722;DHT22;10522;52.198;9.890;2024-01-27T13:47:11;7.50;99.90
20722;DHT22;10522;52.198;9.890;2024-01-27T13:49:37;7.50;99.90
20722;DHT22;10522;52.198;9.890;2024-01-27T13:52:04;7.50;99.90
20722;DHT22;10522;52.198;9.890;2024-01-27T13:54:30;7.60;99.90
20722;DHT22;10522;52.198;9.890;2024-01-27T13:56:56;7.60;99.90
20722;DHT22;10522;52.198;9.890;2024-01-27T13:59:23;7.50;99.90
20722;DHT22;10522;52.198;9.890;2024-01-27T14:01:48;7.60;99.90
20722;DHT22;10522;52.198;9.890;2024-01-27T14:04:14;7.50;99.90
20722;DHT22;10522;52.198;9.890;2024-01-27T14:06:40;7.50;99.90
20722;DHT22;10522;52.198;9.890;2024-01-27T14:09:09;7.50;99.90
20722;DHT22;10522;52.198;9.890;2024-01-27T14:11:35;7.50;99.90
20722;DHT22;10522;52.198;9.890;2024-01-27T14:14:01;7.40;99.90
20722;DHT22;10522;52.198;9.890;2024-01-27T14:16:27;7.50;99.90
20722;DHT22;10522;52.198;9.890;2024-01-27T14:18:54;7.50;99.90
20722;DHT22;10522;52.198;9.890;2024-01-27T14:21:19;7.40;99.90
20722;DHT22;10522;52.198;9.890;2024-01-27T14:23:45;7.40;99.90
20722;DHT22;10522;52.198;9.890;2024-01-27T14:26:11;7.40;99.90
20722;DHT22;10522;52.198;9.890;2024-01-27T14:28:41;7.40;99.90
20722;DHT22;10522;52.198;9.890;2024-01-27T14:31:07;7.40;99.90
20722;DHT22;10522;52.198;9.890;2024-01-27T14:33:33;7.40;99.90
20722;DHT22;10522;52.198;9.890;2024-01-27T14:35:59;7.40;99.90
20722;DHT22;10522;52.198;9.890;2024-01-27T14:38:24;7.40;99.90
20722;DHT22;10522;52.198;9.890;2024-01-27T14:40:53;7.40;99.90
20722;DHT22;10522;52.198;9.890;2024-01-27T14:43:20;7.40;99.90
20722;DHT22;10522;52.198;9.890;2024-01-27T14:45:47;7.40;99.90
20722;DHT22;10522;52.198;9.890;2024-01-27T14:48:13;7.30;99.90
20722;DHT22;10522;52.198;9.890;2024-01-27T14:50:39;7.20;99.90
20722;DHT22;10522;52.198;9.890;2024-01-27T14:53:14;7.10;99.90
20722;DHT22;10522;52.198;9.890;2024-01-27T14:55:40;7.00;99.90
20722;DHT22;10522;52.198;9.890;2024-01-27T14:58:05;7.00;99.90
20722;DHT22;10522;52.198;9.890;2024-01-27T15:00:31;7.00;99.90
20722;DHT22;10522;52.198;9.890;2024-01-27T15:02:57;6.90;99.90
20722;DHT22;10522;52.198;9.890;2024-01-27T15:05:22;6.90;99.90
20722;DHT22;10522;52.198;9.890;2024-01-27T15:07:48;6.80;99.90
20722;DHT22;10522;52.198;9.890;2024-01-27T15:10:13;6.80;99.90
20722;DHT22;10522;52.198;9.890;2024-01-27T15:12:39;6.70;99.90
20722;DHT22;10522;52.198;9.890;2024-01-27T15:15:05;6.60;99.90
20722;DHT22;10522;52.198;9.890;2024-01-27T15:17:32;6.50;99.90
20722;DHT22;10522;52.198;9.890;2024-01-27T15:19:57;6.30;99.90
20722;DHT22;10522;52.198;9.890;2024-01-27T15:22:23;6.30;99.90
20722;DHT22;10522;52.198;9.890;2024-01-27T15:24:48;6.40;99.90
20722;DHT22;10522;52.198;9.890;2024-01-27T15:27:15;6.40;99.90
20722;DHT22;10522;52.198;9.890;2024-01-27T15:29:40;6.40;99.90
20722;DHT22;10522;52.198;9.890;2024-01-27T15:32:06;6.30;99.90
20722;DHT22;10522;52.198;9.890;2024-01-27T15:34:32;6.00;99.90
20722;DHT22;10522;52.198;9.890;2024-01-27T15:36:58;5.90;99.90
20722;DHT22;10522;52.198;9.890;2024-01-27T15:39:23;5.70;99.90